sensor_id;sensor_type;location;lat;lon;timestamp;temperature;humidity
41939;DHT22;23057;48.554;14.454;2024-02-26T00:01:47;-1.10;99.90
41939;DHT22;23057;48.554;14.454;2024-02-26T00:04:18;-1.10;99.90
41939;DHT22;23057;48.554;14.454;2024-02-26T00:06:49;-1.10;99.90
41939;DHT22;23057;48.554;14.454;2024-02-26T00:09:22;-1.20;99.90
41939;DHT22;23057;48.554;14.454;2024-02-26T00:11:53;-1.20;99.90
41939;DHT22;23057;48.554;14.454;2024-02-26T00:14:25;-1.20;99.90
41939;DHT22;23057;48.554;14.454;2024-02-26T00:16:56;-1.20;99.90
41939;DHT22;23057;48.554;14.454;2024-02-26T00:19:27;-1.20;99.90
41939;DHT22;23057;48.554;14.454;2024-02-26T00:21:58;-1.20;99.90
41939;DHT22;23057;48.554;14.454;2024-02-26T00:24:29;-1.30;99.90
41939;DHT22;23057;48.554;14.454;2024-02-26T00:27:00;-1.30;99.90
41939;DHT22;23057;48.554;14.454;2024-02-26T00:29:31;-1.20;99.90
41939;DHT22;23057;48.554;14.454;2024-02-26T00:32:02;-1.30;99.90
41939;DHT22;23057;48.554;14.454;2024-02-26T00:34:34;-1.30;99.90
41939;DHT22;23057;48.554;14.454;2024-02-26T00:37:05;-1.30;99.90
41939;DHT22;23057;48.554;14.454;2024-02-26T00:39:36;-1.40;99.90
41939;DHT22;23057;48.554;14.454;2024-02-26T00:42:07;-1.30;99.90
41939;DHT22;23057;48.554;14.454;2024-02-26T00:44:38;-1.30;99.90
41939;DHT22;23057;48.554;14.454;2024-02-26T00:47:09;-1.30;99.90
41939;DHT22;23057;48.554;14.454;2024-02-26T00:49:40;-1.20;99.90
41939;DHT22;23057;48.554;14.454;2024-02-26T00:52:11;-1.20;99.90
41939;DHT22;23057;48.554;14.454;2024-02-26T00:54:41;-1.10;99.90
41939;DHT22;23057;48.554;14.454;2024-02-26T00:57:12;-1.20;99.90
41939;DHT22;23057;48.554;14.454;2024-02-26T00:59:43;-1.20;99.90
41939;DHT22;23057;48.554;14.454;2024-02-26T01:02:14;-1.30;99.90
41939;DHT22;23057;48.554;14.454;2024-02-26T01:04:45;-1.30;99.90
41939;DHT22;23057;48.554;14.454;2024-02-26T01:07:16;-1.30;99.90
41939;DHT22;23057;48.554;14.454;2024-02-26T01:09:47;-1.20;99.90
41939;DHT22;23057;48.554;14.454;2024-02-26T01:12:17;-1.20;99.90
41939;DHT22;23057;48.554;14.454;2024-02-26T01:14:48;-1.40;99.90
41939;DHT22;23057;48.554;14.454;2024-02-26T01:17:19;-1.50;99.90
41939;DHT22;23057;48.554;14.454;2024-02-26T01:19:50;-1.50;99.90
41939;DHT22;23057;48.554;14.454;2024-02-26T01:22:21;-1.50;99.90
41939;DHT22;23057;48.554;14.454;2024-02-26T01:24:52;-1.40;99.90
41939;DHT22;23057;48.554;14.454;2024-02-26T01:27:23;-1.40;99.90
41939;DHT22;23057;48.554;14.454;2024-02-26T01:29:57;-1.40;99.90
41939;DHT22;23057;48.554;14.454;2024-02-26T01:32:27;-1.30;99.90
41939;DHT22;23057;48.554;14.454;2024-02-26T01:34:58;-1.30;99.90
41939;DHT22;23057;48.554;14.454;2024-02-26T01:37:29;-1.30;99.90
41939;DHT22;23057;48.554;14.454;2024-02-26T01:40:00;-1.40;99.90
41939;DHT22;23057;48.554;14.454;2024-02-26T01:42:34;-1.40;99.90
41939;DHT22;23057;48.554;14.454;2024-02-26T01:45:05;-1.40;99.90
41939;DHT22;23057;48.554;14.454;2024-02-26T01:47:46;-1.50;99.90
41939;DHT22;23057;48.554;14.454;2024-02-26T01:50:20;-1.50;99.90
41939;DHT22;23057;48.554;14.454;2024-02-26T01:52:54;-1.40;99.90
41939;DHT22;23057;48.554;14.454;2024-02-26T01:55:27;-1.50;99.90
41939;DHT22;23057;48.554;14.454;2024-02-26T01:57:58;-1.50;99.90
41939;DHT22;23057;48.554;14.454;2024-02-26T02:00:30;-1.50;99.90
41939;DHT22;23057;48.554;14.454;2024-02-26T02:03:03;-1.60;99.90
41939;DHT22;23057;48.554;14.454;2024-02-26T02:05:35;-1.70;99.90
41939;DHT22;23057;48.554;14.454;2024-02-26T02:08:13;-1.80;99.90
41939;DHT22;23057;48.554;14.454;2024-02-26T02:10:45;-1.90;99.90
41939;DHT22;23057;48.554;14.454;2024-02-26T02:13:18;-2.00;99.90
41939;DHT22;23057;48.554;14.454;2024-02-26T02:15:48;-2.00;99.90
41939;DHT22;23057;48.554;14.454;2024-02-26T02:18:19;-2.00;99.90
41939;DHT22;23057;48.554;14.454;2024-02-26T02:20:50;-2.00;99.90
41939;DHT22;23057;48.554;14.454;2024-02-26T02:23:21;-1.90;99.90
41939;DHT22;23057;48.554;14.454;2024-02-26T02:25:53;-1.80;99.90
41939;DHT22;23057;48.554;14.454;2024-02-26T02:28:26;-1.80;99.90
41939;DHT22;23057;48.554;14.454;2024-02-26T02:30:58;-1.70;99.90
41939;DHT22;23057;48.554;14.454;2024-02-26T02:33:31;-1.70;99.90
41939;DHT22;23057;48.554;14.454;2024-02-26T02:36:04;-1.70;99.90
41939;DHT22;23057;48.554;14.454;2024-02-26T02:38:48;-1.70;99.90
41939;DHT22;23057;48.554;14.454;2024-02-26T02:41:21;-1.70;99.90
41939;DHT22;23057;48.554;14.454;2024-02-26T02:43:52;-1.60;99.90
41939;DHT22;23057;48.554;14.454;2024-02-26T02:46:22;-1.60;99.90
41939;DHT22;23057;48.554;14.454;2024-02-26T02:48:53;-1.60;99.90
41939;DHT22;23057;48.554;14.454;2024-02-26T02:51:25;-1.60;99.90
41939;DHT22;23057;48.554;14.454;2024-02-26T02:53:55;-1.60;99.90
41939;DHT22;23057;48.554;14.454;2024-02-26T02:56:26;-1.80;99.90
41939;DHT22;23057;48.554;14.454;2024-02-26T02:58:57;-1.80;99.90
41939;DHT22;23057;48.554;14.454;2024-02-26T03:01:28;-1.70;99.90
41939;DHT22;23057;48.554;14.454;2024-02-26T03:03:59;-1.70;99.90
41939;DHT22;23057;48.554;14.454;2024-02-26T03:06:30;-1.70;99.90
41939;DHT22;23057;48.554;14.454;2024-02-26T03:09:00;-1.80;99.90
41939;DHT22;23057;48.554;14.454;2024-02-26T03:11:31;-1.80;99.90
41939;DHT22;23057;48.554;14.454;2024-02-26T03:14:02;-1.90;99.90
41939;DHT22;23057;48.554;14.454;2024-02-26T03:16:33;-1.90;99.90
41939;DHT22;23057;48.554;14.454;2024-02-26T03:19:04;-1.80;99.90
41939;DHT22;23057;48.554;14.454;2024-02-26T03:21:35;-1.90;99.90
41939;DHT22;23057;48.554;14.454;2024-02-26T03:24:06;-1.90;99.90
41939;DHT22;23057;48.554;14.454;2024-02-26T03:26:39;-1.90;99.90
41939;DHT22;23057;48.554;14.454;2024-02-26T03:29:10;-1.90;99.90
41939;DHT22;23057;48.554;14.454;2024-02-26T03:31:41;-1.90;99.90
41939;DHT22;23057;48.554;14.454;2024-02-26T03:34:11;-1.90;99.90
41939;DHT22;23057;48.554;14.454;2024-02-26T03:36:44;-2.00;99.90
41939;DHT22;23057;48.554;14.454;2024-02-26T03:39:15;-2.00;99.90
41939;DHT22;23057;48.554;14.454;2024-02-26T03:41:45;-2.10;99.90
41939;DHT22;23057;48.554;14.454;2024-02-26T03:44:16;-2.10;99.90
41939;DHT22;23057;48.554;14.454;2024-02-26T03:46:47;-2.10;99.90
41939;DHT22;23057;48.554;14.454;2024-02-26T03:49:18;-2.10;99.90
41939;DHT22;23057;48.554;14.454;2024-02-26T03:51:49;-2.10;99.90
41939;DHT22;23057;48.554;14.454;2024-02-26T03:54:20;-2.10;99.90
41939;DHT22;23057;48.554;14.454;2024-02-26T03:56:51;-2.10;99.90
41939;DHT22;23057;48.554;14.454;2024-02-26T03:59:22;-2.00;99.90
41939;DHT22;23057;48.554;14.454;2024-02-26T04:01:55;-2.00;99.90
41939;DHT22;23057;48.554;14.454;2024-02-26T04:04:26;-1.90;99.90
41939;DHT22;23057;48.554;14.454;2024-02-26T04:06:56;-1.90;99.90
41939;DHT22;23057;48.554;14.454;2024-02-26T04:09:27;-2.00;99.90
41939;DHT22;23057;48.554;14.454;2024-02-26T04:11:58;-2.00;99.90
41939;DHT22;23057;48.554;14.454;2024-02-26T04:14:29;-2.10;99.90
41939;DHT22;23057;48.554;14.454;2024-02-26T04:17:00;-2.10;99.90
41939;DHT22;23057;48.554;14.454;2024-02-26T04:19:31;-2.20;99.90
41939;DHT22;23057;48.554;14.454;2024-02-26T04:22:02;-2.20;99.90
41939;DHT22;23057;48.554;14.454;2024-02-26T04:24:33;-2.30;99.90
41939;DHT22;23057;48.554;14.454;2024-02-26T04:27:04;-2.30;99.90
41939;DHT22;23057;48.554;14.454;2024-02-26T04:29:35;-2.30;99.90
41939;DHT22;23057;48.554;14.454;2024-02-26T04:32:06;-2.20;99.90
41939;DHT22;23057;48.554;14.454;2024-02-26T04:34:37;-2.20;99.90
41939;DHT22;23057;48.554;14.454;2024-02-26T04:37:07;-2.10;99.90
41939;DHT22;23057;48.554;14.454;2024-02-26T04:39:38;-2.00;99.90
41939;DHT22;23057;48.554;14.454;2024-02-26T04:42:09;-2.10;99.90
41939;DHT22;23057;48.554;14.454;2024-02-26T04:44:40;-2.20;99.90
41939;DHT22;23057;48.554;14.454;2024-02-26T04:47:11;-2.20;99.90
41939;DHT22;23057;48.554;14.454;2024-02-26T04:49:42;-2.20;99.90
41939;DHT22;23057;48.554;14.454;2024-02-26T04:52:12;-2.30;99.90
41939;DHT22;23057;48.554;14.454;2024-02-26T04:54:43;-2.30;99.90
41939;DHT22;23057;48.554;14.454;2024-02-26T04:57:14;-2.40;99.90
41939;DHT22;23057;48.554;14.454;2024-02-26T04:59:45;-2.30;99.90
41939;DHT22;23057;48.554;14.454;2024-02-26T05:02:16;-2.30;99.90
41939;DHT22;23057;48.554;14.454;2024-02-26T05:04:47;-2.30;99.90
41939;DHT22;23057;48.554;14.454;2024-02-26T05:07:17;-2.30;99.90
41939;DHT22;23057;48.554;14.454;2024-02-26T05:09:48;-2.30;99.90
41939;DHT22;23057;48.554;14.454;2024-02-26T05:12:22;-2.20;99.90
41939;DHT22;23057;48.554;14.454;2024-02-26T05:14:53;-2.30;99.90
41939;DHT22;23057;48.554;14.454;2024-02-26T05:17:24;-2.30;99.90
41939;DHT22;23057;48.554;14.454;2024-02-26T05:19:55;-2.30;99.90
41939;DHT22;23057;48.554;14.454;2024-02-26T05:22:25;-2.20;99.90
41939;DHT22;23057;48.554;14.454;2024-02-26T05:24:56;-2.20;99.90
41939;DHT22;23057;48.554;14.454;2024-02-26T05:27:27;-2.20;99.90
41939;DHT22;23057;48.554;14.454;2024-02-26T05:29:58;-2.10;99.90
41939;DHT22;23057;48.554;14.454;2024-02-26T05:32:29;-2.20;99.90
41939;DHT22;23057;48.554;14.454;2024-02-26T05:35:00;-2.20;99.90
41939;DHT22;23057;48.554;14.454;2024-02-26T05:37:33;-2.20;99.90
41939;DHT22;23057;48.554;14.454;2024-02-26T05:40:05;-2.20;99.90
41939;DHT22;23057;48.554;14.454;2024-02-26T05:42:36;-2.20;99.90
41939;DHT22;23057;48.554;14.454;2024-02-26T05:45:08;-2.20;99.90
41939;DHT22;23057;48.554;14.454;2024-02-26T05:47:39;-2.20;99.90
41939;DHT22;23057;48.554;14.454;2024-02-26T05:50:13;-2.30;99.90
41939;DHT22;23057;48.554;14.454;2024-02-26T05:52:45;-2.30;99.90
41939;DHT22;23057;48.554;14.454;2024-02-26T05:55:16;-2.30;99.90
41939;DHT22;23057;48.554;14.454;2024-02-26T05:57:47;-2.20;99.90
41939;DHT22;23057;48.554;14.454;2024-02-26T06:00:20;-2.20;99.90
41939;DHT22;23057;48.554;14.454;2024-02-26T06:02:51;-2.20;99.90
41939;DHT22;23057;48.554;14.454;2024-02-26T06:05:22;-2.10;99.90
41939;DHT22;23057;48.554;14.454;2024-02-26T06:07:53;-1.90;99.90
41939;DHT22;23057;48.554;14.454;2024-02-26T06:10:24;-1.40;99.90
41939;DHT22;23057;48.554;14.454;2024-02-26T06:12:54;-0.80;99.90
41939;DHT22;23057;48.554;14.454;2024-02-26T06:15:25;0.30;99.90
41939;DHT22;23057;48.554;14.454;2024-02-26T06:17:56;0.90;99.90
41939;DHT22;23057;48.554;14.454;2024-02-26T06:20:27;0.20;99.90
41939;DHT22;23057;48.554;14.454;2024-02-26T06:22:58;-0.20;99.90
41939;DHT22;23057;48.554;14.454;2024-02-26T06:25:29;-0.10;99.90
41939;DHT22;23057;48.554;14.454;2024-02-26T06:28:00;0.30;99.90
41939;DHT22;23057;48.554;14.454;2024-02-26T06:30:30;0.30;99.90
41939;DHT22;23057;48.554;14.454;2024-02-26T06:33:01;0.70;99.90
41939;DHT22;23057;48.554;14.454;2024-02-26T06:35:33;0.70;99.90
41939;DHT22;23057;48.554;14.454;2024-02-26T06:38:04;0.80;99.90
41939;DHT22;23057;48.554;14.454;2024-02-26T06:40:35;0.40;99.90
41939;DHT22;23057;48.554;14.454;2024-02-26T06:43:05;0.30;99.90
41939;DHT22;23057;48.554;14.454;2024-02-26T06:45:36;0.50;99.90
41939;DHT22;23057;48.554;14.454;2024-02-26T06:48:07;1.00;99.90
41939;DHT22;23057;48.554;14.454;2024-02-26T06:50:38;1.30;99.90
41939;DHT22;23057;48.554;14.454;2024-02-26T06:53:09;1.00;99.90
41939;DHT22;23057;48.554;14.454;2024-02-26T06:55:40;1.00;99.90
41939;DHT22;23057;48.554;14.454;2024-02-26T06:58:11;1.30;99.90
41939;DHT22;23057;48.554;14.454;2024-02-26T07:00:42;2.30;99.90
41939;DHT22;23057;48.554;14.454;2024-02-26T07:03:12;3.00;99.90
41939;DHT22;23057;48.554;14.454;2024-02-26T07:05:44;3.80;99.90
41939;DHT22;23057;48.554;14.454;2024-02-26T07:08:16;4.20;99.90
41939;DHT22;23057;48.554;14.454;2024-02-26T07:10:47;4.60;99.90
41939;DHT22;23057;48.554;14.454;2024-02-26T07:13:18;4.10;99.90
41939;DHT22;23057;48.554;14.454;2024-02-26T07:15:49;3.30;99.90
41939;DHT22;23057;48.554;14.454;2024-02-26T07:18:20;3.50;99.90
41939;DHT22;23057;48.554;14.454;2024-02-26T07:20:51;3.40;99.90
41939;DHT22;23057;48.554;14.454;2024-02-26T07:23:21;3.70;99.90
41939;DHT22;23057;48.554;14.454;2024-02-26T07:25:52;3.60;71.30
41939;DHT22;23057;48.554;14.454;2024-02-26T07:28:24;3.50;99.90
41939;DHT22;23057;48.554;14.454;2024-02-26T07:30:55;3.60;99.90
41939;DHT22;23057;48.554;14.454;2024-02-26T07:33:26;3.30;99.90
41939;DHT22;23057;48.554;14.454;2024-02-26T07:35:57;3.60;99.90
41939;DHT22;23057;48.554;14.454;2024-02-26T07:38:28;4.00;99.90
41939;DHT22;23057;48.554;14.454;2024-02-26T07:41:02;4.10;12.90
41939;DHT22;23057;48.554;14.454;2024-02-26T07:43:33;4.10;1.00
41939;DHT22;23057;48.554;14.454;2024-02-26T07:46:04;4.20;1.00
41939;DHT22;23057;48.554;14.454;2024-02-26T07:48:35;4.20;1.00
41939;DHT22;23057;48.554;14.454;2024-02-26T07:51:06;4.30;1.00
41939;DHT22;23057;48.554;14.454;2024-02-26T07:53:37;4.60;1.00
41939;DHT22;23057;48.554;14.454;2024-02-26T07:56:09;4.60;1.00
41939;DHT22;23057;48.554;14.454;2024-02-26T07:58:40;4.70;99.90
41939;DHT22;23057;48.554;14.454;2024-02-26T08:01:13;4.50;99.90
41939;DHT22;23057;48.554;14.454;2024-02-26T08:03:45;4.40;1.00
41939;DHT22;23057;48.554;14.454;2024-02-26T08:06:16;4.20;1.00
41939;DHT22;23057;48.554;14.454;2024-02-26T08:08:47;4.20;1.00
41939;DHT22;23057;48.554;14.454;2024-02-26T08:11:18;4.10;1.00
41939;DHT22;23057;48.554;14.454;2024-02-26T08:13:49;4.20;7.30
41939;DHT22;23057;48.554;14.454;2024-02-26T08:16:20;4.40;71.50
41939;DHT22;23057;48.554;14.454;2024-02-26T08:18:51;4.70;79.20
41939;DHT22;23057;48.554;14.454;2024-02-26T08:21:21;4.70;56.10
41939;DHT22;23057;48.554;14.454;2024-02-26T08:23:52;4.80;57.90
41939;DHT22;23057;48.554;14.454;2024-02-26T08:26:23;5.10;99.90
41939;DHT22;23057;48.554;14.454;2024-02-26T08:28:54;5.20;1.00
41939;DHT22;23057;48.554;14.454;2024-02-26T08:31:26;5.10;1.00
41939;DHT22;23057;48.554;14.454;2024-02-26T08:33:58;5.10;1.00
41939;DHT22;23057;48.554;14.454;2024-02-26T08:36:31;5.30;1.00
41939;DHT22;23057;48.554;14.454;2024-02-26T08:39:04;5.40;12.30
41939;DHT22;23057;48.554;14.454;2024-02-26T08:41:36;5.40;1.10
41939;DHT22;23057;48.554;14.454;2024-02-26T08:44:06;5.20;92.00
41939;DHT22;23057;48.554;14.454;2024-02-26T08:46:37;4.90;28.80
41939;DHT22;23057;48.554;14.454;2024-02-26T08:49:08;4.90;99.90
41939;DHT22;23057;48.554;14.454;2024-02-26T08:51:42;5.10;99.90
41939;DHT22;23057;48.554;14.454;2024-02-26T08:54:14;5.10;99.90
41939;DHT22;23057;48.554;14.454;2024-02-26T08:56:45;5.10;99.90
41939;DHT22;23057;48.554;14.454;2024-02-26T08:59:16;5.40;99.90
41939;DHT22;23057;48.554;14.454;2024-02-26T09:01:50;5.20;99.90
41939;DHT22;23057;48.554;14.454;2024-02-26T09:04:20;5.00;99.90
41939;DHT22;23057;48.554;14.454;2024-02-26T09:06:51;4.90;99.90
41939;DHT22;23057;48.554;14.454;2024-02-26T09:09:22;5.00;99.90
41939;DHT22;23057;48.554;14.454;2024-02-26T09:11:55;4.90;99.90
41939;DHT22;23057;48.554;14.454;2024-02-26T09:14:26;5.10;99.90
41939;DHT22;23057;48.554;14.454;2024-02-26T09:16:57;5.40;99.90
41939;DHT22;23057;48.554;14.454;2024-02-26T09:19:27;5.60;94.80
41939;DHT22;23057;48.554;14.454;2024-02-26T09:21:58;5.70;51.90
41939;DHT22;23057;48.554;14.454;2024-02-26T09:24:29;6.10;46.90
41939;DHT22;23057;48.554;14.454;2024-02-26T09:27:00;6.40;15.20
41939;DHT22;23057;48.554;14.454;2024-02-26T09:29:31;6.70;1.00
41939;DHT22;23057;48.554;14.454;2024-02-26T09:32:02;7.00;1.00
41939;DHT22;23057;48.554;14.454;2024-02-26T09:34:34;7.30;99.90
41939;DHT22;23057;48.554;14.454;2024-02-26T09:37:04;7.30;99.90
41939;DHT22;23057;48.554;14.454;2024-02-26T09:39:35;7.40;99.90
41939;DHT22;23057;48.554;14.454;2024-02-26T09:42:08;7.50;99.90
41939;DHT22;23057;48.554;14.454;2024-02-26T09:44:44;7.80;99.90
41939;DHT22;23057;48.554;14.454;2024-02-26T09:47:15;8.00;99.90
41939;DHT22;23057;48.554;14.454;2024-02-26T09:49:48;8.30;99.90
41939;DHT22;23057;48.554;14.454;2024-02-26T09:52:23;8.30;99.90
41939;DHT22;23057;48.554;14.454;2024-02-26T09:54:57;8.30;99.90
41939;DHT22;23057;48.554;14.454;2024-02-26T09:57:28;8.40;99.90
41939;DHT22;23057;48.554;14.454;2024-02-26T10:00:02;8.30;94.10
41939;DHT22;23057;48.554;14.454;2024-02-26T10:02:36;8.40;52.60
41939;DHT22;23057;48.554;14.454;2024-02-26T10:05:12;8.50;46.70
41939;DHT22;23057;48.554;14.454;2024-02-26T10:07:48;8.70;33.40
41939;DHT22;23057;48.554;14.454;2024-02-26T10:10:21;8.90;37.90
41939;DHT22;23057;48.554;14.454;2024-02-26T10:12:52;8.90;80.30
41939;DHT22;23057;48.554;14.454;2024-02-26T10:15:23;8.90;94.10
41939;DHT22;23057;48.554;14.454;2024-02-26T10:17:54;8.80;96.80
41939;DHT22;23057;48.554;14.454;2024-02-26T10:20:25;8.80;99.90
41939;DHT22;23057;48.554;14.454;2024-02-26T10:22:58;8.80;99.90
41939;DHT22;23057;48.554;14.454;2024-02-26T10:25:32;8.70;26.10
41939;DHT22;23057;48.554;14.454;2024-02-26T10:28:03;8.80;8.90
41939;DHT22;23057;48.554;14.454;2024-02-26T10:30:36;9.00;13.00
41939;DHT22;23057;48.554;14.454;2024-02-26T10:33:08;9.10;1.00
41939;DHT22;23057;48.554;14.454;2024-02-26T10:35:45;9.10;1.00
41939;DHT22;23057;48.554;14.454;2024-02-26T10:38:17;9.10;1.00
41939;DHT22;23057;48.554;14.454;2024-02-26T10:40:50;9.20;1.00
41939;DHT22;23057;48.554;14.454;2024-02-26T10:43:21;9.60;1.00
41939;DHT22;23057;48.554;14.454;2024-02-26T10:45:55;9.70;1.00
41939;DHT22;23057;48.554;14.454;2024-02-26T10:48:26;9.70;1.00
41939;DHT22;23057;48.554;14.454;2024-02-26T10:50:57;9.20;1.00
41939;DHT22;23057;48.554;14.454;2024-02-26T10:53:29;8.70;4.70
41939;DHT22;23057;48.554;14.454;2024-02-26T10:56:03;8.30;24.10
41939;DHT22;23057;48.554;14.454;2024-02-26T10:58:36;8.00;99.90
41939;DHT22;23057;48.554;14.454;2024-02-26T11:01:09;7.20;99.90
41939;DHT22;23057;48.554;14.454;2024-02-26T11:03:41;6.90;99.90
41939;DHT22;23057;48.554;14.454;2024-02-26T11:06:14;6.90;99.90
41939;DHT22;23057;48.554;14.454;2024-02-26T11:08:48;7.20;99.90
41939;DHT22;23057;48.554;14.454;2024-02-26T11:11:20;7.30;99.90
41939;DHT22;23057;48.554;14.454;2024-02-26T11:13:53;7.40;99.90
41939;DHT22;23057;48.554;14.454;2024-02-26T11:16:26;7.20;99.90
41939;DHT22;23057;48.554;14.454;2024-02-26T11:18:58;7.20;99.90
41939;DHT22;23057;48.554;14.454;2024-02-26T11:21:31;7.20;99.90
41939;DHT22;23057;48.554;14.454;2024-02-26T11:24:15;7.30;99.90
41939;DHT22;23057;48.554;14.454;2024-02-26T11:26:54;7.50;99.90
41939;DHT22;23057;48.554;14.454;2024-02-26T11:29:38;7.40;99.90
41939;DHT22;23057;48.554;14.454;2024-02-26T11:32:18;7.30;99.90
41939;DHT22;23057;48.554;14.454;2024-02-26T11:34:49;7.30;99.90
41939;DHT22;23057;48.554;14.454;2024-02-26T11:37:21;7.20;99.90
41939;DHT22;23057;48.554;14.454;2024-02-26T11:39:52;7.10;99.90
41939;DHT22;23057;48.554;14.454;2024-02-26T11:42:24;7.00;35.30
41939;DHT22;23057;48.554;14.454;2024-02-26T11:44:56;6.90;17.50
41939;DHT22;23057;48.554;14.454;2024-02-26T11:47:34;6.80;6.80
41939;DHT22;23057;48.554;14.454;2024-02-26T11:50:38;6.70;54.00
41939;DHT22;23057;48.554;14.454;2024-02-26T11:53:31;6.80;20.20
41939;DHT22;23057;48.554;14.454;2024-02-26T12:01:48;7.00;99.90
41939;DHT22;23057;48.554;14.454;2024-02-26T12:04:24;7.20;99.90
41939;DHT22;23057;48.554;14.454;2024-02-26T12:07:03;7.20;99.90
41939;DHT22;23057;48.554;14.454;2024-02-26T12:09:39;7.40;99.90
41939;DHT22;23057;48.554;14.454;2024-02-26T12:12:18;7.60;99.90
41939;DHT22;23057;48.554;14.454;2024-02-26T12:14:55;7.90;99.90
41939;DHT22;23057;48.554;14.454;2024-02-26T12:17:27;7.70;99.90
41939;DHT22;23057;48.554;14.454;2024-02-26T12:20:11;7.50;99.90
41939;DHT22;23057;48.554;14.454;2024-02-26T12:22:47;7.40;99.90
41939;DHT22;23057;48.554;14.454;2024-02-26T12:25:23;7.40;99.90
41939;DHT22;23057;48.554;14.454;2024-02-26T12:28:00;7.40;99.90
41939;DHT22;23057;48.554;14.454;2024-02-26T12:30:31;7.40;99.90
41939;DHT22;23057;48.554;14.454;2024-02-26T12:33:02;7.10;99.90
41939;DHT22;23057;48.554;14.454;2024-02-26T12:35:35;7.10;99.90
41939;DHT22;23057;48.554;14.454;2024-02-26T12:38:06;6.90;99.90
41939;DHT22;23057;48.554;14.454;2024-02-26T12:40:38;6.70;99.90
41939;DHT22;23057;48.554;14.454;2024-02-26T12:43:10;6.50;99.90
41939;DHT22;23057;48.554;14.454;2024-02-26T12:45:43;6.40;99.90
41939;DHT22;23057;48.554;14.454;2024-02-26T12:48:17;6.30;99.90
41939;DHT22;23057;48.554;14.454;2024-02-26T12:50:49;6.20;99.90
41939;DHT22;23057;48.554;14.454;2024-02-26T12:53:20;6.00;99.90
41939;DHT22;23057;48.554;14.454;2024-02-26T12:55:53;5.80;1.00
41939;DHT22;23057;48.554;14.454;2024-02-26T12:58:25;5.90;1.00
41939;DHT22;23057;48.554;14.454;2024-02-26T13:00:58;5.90;99.90
41939;DHT22;23057;48.554;14.454;2024-02-26T13:03:30;5.80;1.00
41939;DHT22;23057;48.554;14.454;2024-02-26T13:06:03;5.80;1.00
41939;DHT22;23057;48.554;14.454;2024-02-26T13:08:36;5.60;1.00
41939;DHT22;23057;48.554;14.454;2024-02-26T13:11:07;5.50;1.00
41939;DHT22;23057;48.554;14.454;2024-02-26T13:13:38;5.30;1.00
41939;DHT22;23057;48.554;14.454;2024-02-26T13:16:14;5.30;5.70
41939;DHT22;23057;48.554;14.454;2024-02-26T13:18:46;5.20;99.90
41939;DHT22;23057;48.554;14.454;2024-02-26T13:21:18;5.10;99.90
41939;DHT22;23057;48.554;14.454;2024-02-26T13:23:52;5.00;99.90
41939;DHT22;23057;48.554;14.454;2024-02-26T13:26:23;4.90;99.90
41939;DHT22;23057;48.554;14.454;2024-02-26T13:29:04;5.00;99.90
41939;DHT22;23057;48.554;14.454;2024-02-26T13:31:41;4.90;99.90
41939;DHT22;23057;48.554;14.454;2024-02-26T13:34:26;4.90;1.00
41939;DHT22;23057;48.554;14.454;2024-02-26T13:36:58;5.00;14.70
41939;DHT22;23057;48.554;14.454;2024-02-26T13:39:29;4.90;15.90
41939;DHT22;23057;48.554;14.454;2024-02-26T13:42:00;4.80;99.90
41939;DHT22;23057;48.554;14.454;2024-02-26T13:44:31;4.70;99.90
41939;DHT22;23057;48.554;14.454;2024-02-26T13:47:04;4.60;99.90
41939;DHT22;23057;48.554;14.454;2024-02-26T13:49:35;4.60;1.00
41939;DHT22;23057;48.554;14.454;2024-02-26T13:52:06;4.60;1.00
41939;DHT22;23057;48.554;14.454;2024-02-26T13:54:36;4.60;85.80
41939;DHT22;23057;48.554;14.454;2024-02-26T13:57:09;4.60;99.90
41939;DHT22;23057;48.554;14.454;2024-02-26T13:59:40;4.50;99.90
41939;DHT22;23057;48.554;14.454;2024-02-26T14:02:12;4.40;99.90
41939;DHT22;23057;48.554;14.454;2024-02-26T14:04:43;4.40;99.90
41939;DHT22;23057;48.554;14.454;2024-02-26T14:07:15;4.40;99.90
41939;DHT22;23057;48.554;14.454;2024-02-26T14:09:47;4.40;99.90
41939;DHT22;23057;48.554;14.454;2024-02-26T14:12:18;4.50;99.90
41939;DHT22;23057;48.554;14.454;2024-02-26T14:14:49;4.60;99.90
41939;DHT22;23057;48.554;14.454;2024-02-26T14:17:20;4.60;99.90
41939;DHT22;23057;48.554;14.454;2024-02-26T14:19:51;4.70;99.90
41939;DHT22;23057;48.554;14.454;2024-02-26T14:22:21;4.70;99.90
41939;DHT22;23057;48.554;14.454;2024-02-26T14:24:53;4.60;99.90
41939;DHT22;23057;48.554;14.454;2024-02-26T14:27:24;4.60;99.90
41939;DHT22;23057;48.554;14.454;2024-02-26T14:29:55;4.70;99.90
41939;DHT22;23057;48.554;14.454;2024-02-26T14:32:25;4.80;99.90
41939;DHT22;23057;48.554;14.454;2024-02-26T14:34:56;4.90;99.90
41939;DHT22;23057;48.554;14.454;2024-02-26T14:37:27;5.00;99.90
41939;DHT22;23057;48.554;14.454;2024-02-26T14:39:58;5.20;99.90
41939;DHT22;23057;48.554;14.454;2024-02-26T14:42:29;5.20;99.90
41939;DHT22;23057;48.554;14.454;2024-02-26T14:45:00;6.40;99.90
41939;DHT22;23057;48.554;14.454;2024-02-26T14:47:31;6.20;99.90
41939;DHT22;23057;48.554;14.454;2024-02-26T14:50:02;5.50;99.90
41939;DHT22;23057;48.554;14.454;2024-02-26T14:52:34;5.10;99.90
41939;DHT22;23057;48.554;14.454;2024-02-26T14:55:05;5.10;99.90
41939;DHT22;23057;48.554;14.454;2024-02-26T14:57:36;4.90;99.90
41939;DHT22;23057;48.554;14.454;2024-02-26T15:00:08;4.80;99.90
41939;DHT22;23057;48.554;14.454;2024-02-26T15:02:40;4.80;99.90
41939;DHT22;23057;48.554;14.454;2024-02-26T15:05:11;4.90;99.90
41939;DHT22;23057;48.554;14.454;2024-02-26T15:07:41;4.90;99.90
41939;DHT22;23057;48.554;14.454;2024-02-26T15:10:12;4.90;99.90
41939;DHT22;23057;48.554;14.454;2024-02-26T15:12:43;4.80;99.90
41939;DHT22;23057;48.554;14.454;2024-02-26T15:15:14;4.70;99.90
41939;DHT22;23057;48.554;14.454;2024-02-26T15:17:45;4.60;99.90
41939;DHT22;23057;48.554;14.454;2024-02-26T15:20:16;4.60;99.90
41939;DHT22;23057;48.554;14.454;2024-02-26T15:22:48;4.30;99.90
41939;DHT22;23057;48.554;14.454;2024-02-26T15:25:18;4.30;99.90
41939;DHT22;23057;48.554;14.454;2024-02-26T15:27:49;4.30;99.90
41939;DHT22;23057;48.554;14.454;2024-02-26T15:30:20;4.30;99.90
41939;DHT22;23057;48.554;14.454;2024-02-26T15:32:51;4.10;99.90
41939;DHT22;23057;48.554;14.454;2024-02-26T15:35:22;4.00;99.90
41939;DHT22;23057;48.554;14.454;2024-02-26T15:37:53;4.00;99.90
41939;DHT22;23057;48.554;14.454;2024-02-26T15:40:25;3.90;99.90
41939;DHT22;23057;48.554;14.454;2024-02-26T15:42:55;3.90;99.90
41939;DHT22;23057;48.554;14.454;2024-02-26T15:45:27;3.80;99.90
41939;DHT22;23057;48.554;14.454;2024-02-26T15:48:02;3.80;99.90
41939;DHT22;23057;48.554;14.454;2024-02-26T15:50:33;3.80;99.90
41939;DHT22;23057;48.554;14.454;2024-02-26T15:53:04;3.80;99.90
41939;DHT22;23057;48.554;14.454;2024-02-26T15:55:35;3.70;99.90
41939;DHT22;23057;48.554;14.454;2024-02-26T15:58:09;3.70;99.90
41939;DHT22;23057;48.554;14.454;2024-02-26T16:00:44;3.60;99.90
41939;DHT22;23057;48.554;14.454;2024-02-26T16:03:14;3.60;99.90